Time;durP1;ratioP1;P1;durP2;ratioP2;P2;SDS_P1;SDS_P2;PMS_P1;PMS_P2;Temp;Humidity;BMP_temperature;BMP_pressure;BME280_temperature;BME280_humidity;BME280_pressure;Samples;Min_cycle;Max_cycle;Signal;HPM_P1;HPM_P2
2021/09/08 00:00:12;;;;;;;13.38;8.50;;;23.20;57.00;;;;;;5012990;28;20050;-57
2021/09/08 00:02:39;;;;;;;12.45;7.78;;;23.20;57.00;;;;;;5016225;28;20034;-57
2021/09/08 00:05:08;;;;;;;12.75;8.20;;;23.10;57.00;;;;;;5016460;28;20041;-58
2021/09/08 00:07:34;;;;;;;10.35;7.45;;;23.10;56.80;;;;;;5015820;28;20026;-57
2021/09/08 00:10:02;;;;;;;11.07;8.23;;;23.10;57.00;;;;;;5016361;28;20511;-57
2021/09/08 00:12:28;;;;;;;11.75;8.45;;;23.10;56.90;;;;;;5016145;28;20057;-56
2021/09/08 00:14:55;;;;;;;9.18;7.63;;;23.10;56.90;;;;;;5016348;28;20038;-57
2021/09/08 00:17:21;;;;;;;14.63;8.63;;;23.10;56.90;;;;;;5015653;28;20041;-58
2021/09/08 00:19:48;;;;;;;9.90;7.68;;;23.10;56.80;;;;;;5015833;28;20030;-58
2021/09/08 00:22:14;;;;;;;9.65;7.45;;;23.00;56.70;;;;;;5015378;28;20060;-57
2021/09/08 00:24:41;;;;;;;10.27;7.85;;;23.10;56.60;;;;;;5016139;28;20053;-56
2021/09/08 00:27:14;;;;;;;11.65;7.72;;;23.10;56.60;;;;;;5015982;28;20061;-57
2021/09/08 00:29:40;;;;;;;10.40;6.80;;;23.10;56.70;;;;;;5015867;28;20038;-57
2021/09/08 00:32:08;;;;;;;9.25;7.47;;;23.10;56.70;;;;;;5015806;28;20478;-58
2021/09/08 00:34:36;;;;;;;10.50;7.32;;;23.10;56.70;;;;;;5014309;28;20026;-56
2021/09/08 00:37:04;;;;;;;10.27;7.88;;;23.10;56.70;;;;;;5015918;28;20045;-57
2021/09/08 00:39:30;;;;;;;9.77;8.35;;;23.10;56.70;;;;;;5015554;28;20048;-57
2021/09/08 00:41:58;;;;;;;11.57;7.47;;;23.10;56.70;;;;;;5015743;28;20041;-56
2021/09/08 00:44:27;;;;;;;12.32;7.30;;;23.10;56.50;;;;;;5013969;28;20041;-56
2021/09/08 00:46:56;;;;;;;15.85;7.68;;;23.00;56.50;;;;;;5015457;28;20042;-57
2021/09/08 00:49:23;;;;;;;10.37;7.00;;;23.00;56.30;;;;;;5014511;28;20383;-59
2021/09/08 00:51:51;;;;;;;9.52;7.30;;;23.00;56.20;;;;;;5014761;28;20049;-57
2021/09/08 00:54:20;;;;;;;8.95;7.00;;;23.00;56.10;;;;;;5015373;28;20034;-57
2021/09/08 00:56:48;;;;;;;8.35;7.07;;;23.00;56.10;;;;;;5015475;28;20030;-58
2021/09/08 00:59:15;;;;;;;8.35;6.85;;;23.00;56.10;;;;;;5014921;28;20033;-58
2021/09/08 01:01:42;;;;;;;10.93;7.20;;;23.00;56.10;;;;;;5015431;28;20151;-57
2021/09/08 01:04:14;;;;;;;8.68;7.15;;;23.00;56.00;;;;;;5015073;28;20045;-58
2021/09/08 01:06:41;;;;;;;11.18;6.95;;;23.00;56.00;;;;;;5014983;28;20030;-57
2021/09/08 01:09:08;;;;;;;10.10;7.30;;;23.00;56.10;;;;;;5014350;28;20049;-57
2021/09/08 01:11:35;;;;;;;11.30;6.93;;;23.00;56.00;;;;;;5014343;28;20102;-57
2021/09/08 01:14:02;;;;;;;9.55;7.03;;;23.00;56.00;;;;;;5014890;28;20417;-58
2021/09/08 01:16:30;;;;;;;14.02;7.20;;;23.00;56.00;;;;;;5014922;28;20034;-59
2021/09/08 01:18:56;;;;;;;9.50;6.55;;;23.00;55.90;;;;;;5014938;28;20030;-59
2021/09/08 01:21:23;;;;;;;9.15;6.80;;;23.00;55.90;;;;;;5014607;28;20114;-58
2021/09/08 01:23:49;;;;;;;9.32;6.88;;;23.00;55.90;;;;;;5015081;28;20053;-58
2021/09/08 01:26:16;;;;;;;8.30;6.68;;;23.00;55.90;;;;;;5014656;28;20038;-57
2021/09/08 01:28:42;;;;;;;8.35;6.07;;;23.00;55.60;;;;;;5014330;28;20049;-59
2021/09/08 01:31:09;;;;;;;8.45;7.00;;;23.00;55.60;;;;;;5014380;28;20093;-57
2021/09/08 01:33:35;;;;;;;11.98;6.45;;;23.00;55.60;;;;;;5014668;28;20034;-58
2021/09/08 01:36:03;;;;;;;8.85;6.68;;;23.00;55.60;;;;;;5014710;28;20386;-58
2021/09/08 01:38:29;;;;;;;7.53;6.25;;;23.00;55.50;;;;;;5014401;28;20463;-57
2021/09/08 01:40:56;;;;;;;11.48;5.90;;;23.00;55.40;;;;;;5014561;28;20037;-59
2021/09/08 01:43:24;;;;;;;7.82;6.78;;;23.00;55.50;;;;;;5014203;28;20030;-58
2021/09/08 01:45:51;;;;;;;8.57;6.22;;;23.00;55.60;;;;;;5014683;28;20026;-57
2021/09/08 01:48:18;;;;;;;10.50;7.80;;;23.00;55.40;;;;;;5013860;28;20045;-58
2021/09/08 01:50:45;;;;;;;9.20;6.80;;;23.00;55.30;;;;;;5014537;28;20041;-58
2021/09/08 01:53:12;;;;;;;8.57;6.45;;;22.90;55.20;;;;;;5013783;28;20042;-58
2021/09/08 01:55:39;;;;;;;10.50;6.65;;;23.00;55.30;;;;;;5014347;28;20403;-56
2021/09/08 01:58:06;;;;;;;11.45;7.15;;;23.00;55.40;;;;;;5013875;28;20087;-57
2021/09/08 02:00:32;;;;;;;10.63;6.18;;;22.90;55.20;;;;;;5014164;28;20038;-58
2021/09/08 02:02:59;;;;;;;9.30;7.13;;;22.90;55.30;;;;;;5013950;28;20028;-57
2021/09/08 02:05:25;;;;;;;9.88;6.60;;;22.90;55.30;;;;;;5014009;28;20061;-58
2021/09/08 02:07:52;;;;;;;10.70;7.28;;;23.00;55.20;;;;;;5014058;28;20030;-56
2021/09/08 02:10:18;;;;;;;8.60;6.70;;;22.90;55.30;;;;;;5013016;28;20046;-57
2021/09/08 02:12:46;;;;;;;10.70;7.38;;;22.90;55.30;;;;;;5013898;28;20030;-57
2021/09/08 02:15:12;;;;;;;9.32;6.80;;;22.90;55.20;;;;;;5013625;28;20077;-57
2021/09/08 02:17:39;;;;;;;10.18;6.90;;;22.90;55.20;;;;;;5013575;28;20049;-57
2021/09/08 02:20:07;;;;;;;9.70;6.88;;;22.90;55.50;;;;;;5012695;28;20493;-58
2021/09/08 02:22:34;;;;;;;9.10;6.80;;;22.90;55.50;;;;;;5013973;28;20041;-57
2021/09/08 02:25:01;;;;;;;10.82;5.97;;;22.90;55.40;;;;;;5012835;28;20034;-56
2021/09/08 02:27:27;;;;;;;12.45;7.03;;;22.90;55.30;;;;;;5012760;28;20053;-58
2021/09/08 02:29:54;;;;;;;11.57;7.22;;;22.90;55.40;;;;;;5013136;28;20046;-57
2021/09/08 02:32:20;;;;;;;8.70;6.55;;;22.90;55.50;;;;;;5013625;28;20041;-57
2021/09/08 02:34:48;;;;;;;11.00;6.65;;;22.90;55.50;;;;;;5013588;28;20041;-57
2021/09/08 02:37:14;;;;;;;7.93;6.47;;;22.90;55.50;;;;;;5012226;28;20042;-57
2021/09/08 02:39:41;;;;;;;7.07;5.65;;;22.90;55.50;;;;;;5013285;28;20386;-57
2021/09/08 02:42:08;;;;;;;9.20;6.72;;;22.90;55.30;;;;;;5013433;28;20022;-55
2021/09/08 02:44:34;;;;;;;7.78;6.15;;;22.90;55.10;;;;;;5013617;28;20419;-58
2021/09/08 02:47:00;;;;;;;8.30;5.85;;;22.90;55.20;;;;;;5011891;28;20034;-57
2021/09/08 02:49:27;;;;;;;7.53;5.90;;;22.90;55.30;;;;;;5013122;28;20486;-56
2021/09/08 02:51:53;;;;;;;8.90;6.55;;;22.90;55.30;;;;;;5013254;28;20045;-58
2021/09/08 02:54:20;;;;;;;7.47;5.85;;;22.90;55.20;;;;;;5012993;28;20045;-57
2021/09/08 02:56:47;;;;;;;9.18;6.88;;;22.90;55.30;;;;;;5013068;28;20041;-57
2021/09/08 02:59:14;;;;;;;8.45;7.18;;;22.90;55.50;;;;;;5013462;28;20037;-56
2021/09/08 03:01:40;;;;;;;8.57;6.13;;;22.90;55.50;;;;;;5011816;28;20040;-58
2021/09/08 03:04:07;;;;;;;8.30;6.35;;;22.80;55.60;;;;;;5012522;28;20513;-57
2021/09/08 03:06:33;;;;;;;10.32;7.00;;;22.80;55.70;;;;;;5011482;28;20029;-59
2021/09/08 03:09:00;;;;;;;9.25;6.70;;;22.80;55.70;;;;;;5010589;28;20049;-58
2021/09/08 03:11:26;;;;;;;10.63;7.53;;;22.80;55.60;;;;;;5011396;28;20026;-58
2021/09/08 03:13:54;;;;;;;11.13;8.10;;;22.80;55.60;;;;;;5011354;28;20045;-57
2021/09/08 03:16:20;;;;;;;9.68;6.75;;;22.70;55.60;;;;;;5011013;28;20045;-57
2021/09/08 03:18:47;;;;;;;14.05;8.20;;;22.70;55.90;;;;;;5010525;28;20046;-57
2021/09/08 03:21:14;;;;;;;10.57;7.15;;;22.70;55.90;;;;;;5013332;28;20041;-58
2021/09/08 03:23:40;;;;;;;9.35;6.80;;;22.70;56.10;;;;;;5013120;28;20057;-58
2021/09/08 03:26:07;;;;;;;10.60;7.85;;;22.70;56.10;;;;;;5013154;28;20049;-58
2021/09/08 03:28:33;;;;;;;10.32;7.78;;;22.70;56.00;;;;;;5012718;28;20050;-53
2021/09/08 03:31:00;;;;;;;18.10;9.10;;;22.70;56.00;;;;;;5012052;28;20038;-57
2021/09/08 03:33:27;;;;;;;12.15;7.47;;;22.70;55.80;;;;;;5012907;28;20034;-57
2021/09/08 03:35:53;;;;;;;11.10;8.30;;;22.70;55.80;;;;;;5012440;28;20053;-58
2021/09/08 03:38:20;;;;;;;9.50;7.57;;;22.70;55.70;;;;;;5012973;28;20049;-56
2021/09/08 03:40:46;;;;;;;13.25;7.68;;;22.70;55.70;;;;;;5012651;28;20459;-57
2021/09/08 03:43:14;;;;;;;9.93;7.90;;;22.70;55.90;;;;;;5012964;28;20037;-57
2021/09/08 03:45:40;;;;;;;12.25;8.32;;;22.70;56.10;;;;;;5012508;28;20034;-57
2021/09/08 03:48:06;;;;;;;14.35;8.30;;;22.70;56.20;;;;;;5012650;28;20041;-58
2021/09/08 03:50:33;;;;;;;9.27;7.18;;;22.60;56.30;;;;;;5012477;28;20517;-56
2021/09/08 03:53:00;;;;;;;10.60;7.57;;;22.60;56.50;;;;;;5012575;28;20038;-57
2021/09/08 03:55:26;;;;;;;10.18;8.00;;;22.60;56.40;;;;;;5012426;28;20526;-56
2021/09/08 03:57:52;;;;;;;10.25;7.28;;;22.60;56.40;;;;;;5012998;28;20038;-57
2021/09/08 04:00:19;;;;;;;13.65;7.57;;;22.60;56.40;;;;;;5012686;28;20041;-58
2021/09/08 04:02:45;;;;;;;11.95;7.95;;;22.60;56.60;;;;;;5012356;28;20042;-57
2021/09/08 04:05:13;;;;;;;11.43;7.32;;;22.60;56.60;;;;;;5012282;28;20046;-57
2021/09/08 04:07:40;;;;;;;9.88;7.80;;;22.60;56.60;;;;;;5012680;28;20030;-57
2021/09/08 04:10:07;;;;;;;12.65;8.48;;;22.60;56.70;;;;;;5012542;28;20038;-58
2021/09/08 04:12:33;;;;;;;11.95;7.85;;;22.60;56.80;;;;;;5013144;28;20109;-57
2021/09/08 04:15:00;;;;;;;11.52;8.73;;;22.60;56.90;;;;;;5012580;28;20029;-56
2021/09/08 04:17:26;;;;;;;12.20;8.27;;;22.60;57.00;;;;;;5012079;28;20406;-57
2021/09/08 04:19:53;;;;;;;10.82;8.02;;;22.50;57.00;;;;;;5011524;28;20045;-56
2021/09/08 04:22:19;;;;;;;16.05;9.57;;;22.60;57.10;;;;;;5012688;28;20057;-56
2021/09/08 04:24:46;;;;;;;13.80;8.73;;;22.60;57.20;;;;;;5012497;28;20054;-56
2021/09/08 04:27:12;;;;;;;11.40;8.77;;;22.50;57.40;;;;;;5012333;28;20478;-57
2021/09/08 04:29:39;;;;;;;12.90;9.30;;;22.50;57.40;;;;;;5012281;28;20034;-56
2021/09/08 04:32:05;;;;;;;15.48;8.55;;;22.50;57.50;;;;;;5012463;28;20484;-57
2021/09/08 04:34:33;;;;;;;11.68;8.75;;;22.50;58.00;;;;;;5012063;28;20034;-57
2021/09/08 04:37:00;;;;;;;11.23;9.05;;;22.50;57.40;;;;;;5012517;28;20060;-57
2021/09/08 04:39:27;;;;;;;14.18;9.02;;;22.50;57.50;;;;;;5012299;28;20046;-57
2021/09/08 04:41:53;;;;;;;14.18;9.43;;;22.50;57.60;;;;;;5012462;28;20034;-58
2021/09/08 04:44:19;;;;;;;11.25;8.38;;;22.50;57.70;;;;;;5011487;28;20073;-57
2021/09/08 04:46:46;;;;;;;12.85;8.02;;;22.50;57.70;;;;;;5013200;28;20057;-57
2021/09/08 04:49:12;;;;;;;11.20;9.00;;;22.50;57.70;;;;;;5015348;28;20038;-57
2021/09/08 04:51:39;;;;;;;16.63;9.35;;;22.40;57.70;;;;;;5015143;28;20109;-55
2021/09/08 04:54:05;;;;;;;13.60;9.63;;;22.40;57.90;;;;;;5015420;28;20045;-55
2021/09/08 04:56:32;;;;;;;14.32;8.90;;;22.40;57.90;;;;;;5015787;28;20034;-57
2021/09/08 04:58:58;;;;;;;10.88;8.52;;;22.40;57.80;;;;;;5015111;28;20072;-58
2021/09/08 05:01:25;;;;;;;14.50;8.98;;;22.50;57.50;;;;;;5015545;28;20034;-57
2021/09/08 05:03:51;;;;;;;11.32;8.15;;;22.50;58.00;;;;;;5015961;28;20053;-56
2021/09/08 05:06:18;;;;;;;17.17;9.27;;;22.40;57.30;;;;;;5014729;28;20038;-57
2021/09/08 05:08:45;;;;;;;11.90;8.07;;;22.40;57.40;;;;;;5015315;28;20048;-56
2021/09/08 05:11:12;;;;;;;13.45;8.93;;;22.50;57.50;;;;;;5014532;28;20034;-57
2021/09/08 05:13:39;;;;;;;18.95;9.13;;;22.50;57.50;;;;;;5015529;28;20045;-56
2021/09/08 05:16:08;;;;;;;15.85;9.40;;;22.50;57.50;;;;;;5014554;28;20052;-57
2021/09/08 05:18:35;;;;;;;14.05;9.02;;;22.50;57.50;;;;;;5015911;28;20049;-58
2021/09/08 05:21:02;;;;;;;15.30;9.45;;;22.50;57.50;;;;;;5014982;28;20044;-57
2021/09/08 05:23:29;;;;;;;16.45;9.70;;;22.50;57.50;;;;;;5014929;28;20505;-56
2021/09/08 05:25:56;;;;;;;13.43;9.77;;;22.50;57.50;;;;;;5014593;28;20046;-58
2021/09/08 05:28:22;;;;;;;13.27;10.40;;;22.50;57.60;;;;;;5014690;28;20053;-56
2021/09/08 05:30:49;;;;;;;22.65;11.35;;;22.50;57.80;;;;;;5014409;28;20044;-57
2021/09/08 05:33:15;;;;;;;13.07;9.60;;;22.40;57.80;;;;;;5015608;28;20509;-58
2021/09/08 05:35:42;;;;;;;14.68;9.68;;;22.40;57.80;;;;;;5015198;28;20034;-58
2021/09/08 05:38:08;;;;;;;13.30;9.63;;;22.40;57.60;;;;;;5014344;28;20372;-57
2021/09/08 05:40:35;;;;;;;16.20;9.10;;;22.40;57.60;;;;;;5014704;28;20400;-57
2021/09/08 05:43:01;;;;;;;15.00;9.43;;;22.40;57.70;;;;;;5014222;28;20042;-56
2021/09/08 05:45:28;;;;;;;12.60;9.40;;;22.40;57.80;;;;;;5014689;28;20483;-58
2021/09/08 05:47:54;;;;;;;16.20;9.35;;;22.40;57.80;;;;;;5014131;28;20037;-59
2021/09/08 05:50:21;;;;;;;12.70;8.95;;;22.40;57.60;;;;;;5014077;28;20570;-57
2021/09/08 05:52:47;;;;;;;12.23;8.88;;;22.40;57.60;;;;;;5014364;28;20049;-57
2021/09/08 05:55:14;;;;;;;13.60;8.38;;;22.40;57.60;;;;;;5014345;28;20033;-58
2021/09/08 05:57:40;;;;;;;12.35;9.05;;;22.50;57.60;;;;;;5013998;28;20032;-56
2021/09/08 06:00:07;;;;;;;11.32;8.50;;;22.50;57.60;;;;;;5014602;28;20045;-57
2021/09/08 06:02:40;;;;;;;14.23;9.80;;;22.60;57.50;;;;;;5014332;28;20046;-58
2021/09/08 06:05:07;;;;;;;13.35;9.05;;;22.60;57.30;;;;;;5014281;28;20033;-57
2021/09/08 06:07:33;;;;;;;11.98;8.75;;;22.50;57.20;;;;;;5013781;28;20558;-58
2021/09/08 06:10:00;;;;;;;16.85;10.48;;;22.50;57.20;;;;;;5013664;28;20049;-56
2021/09/08 06:12:26;;;;;;;14.27;9.43;;;22.50;57.20;;;;;;5014057;28;20056;-57
2021/09/08 06:14:53;;;;;;;13.25;9.88;;;22.50;57.30;;;;;;5013856;28;20479;-57
2021/09/08 06:17:19;;;;;;;15.55;9.75;;;22.50;57.10;;;;;;5014138;28;20041;-57
2021/09/08 06:19:46;;;;;;;13.43;10.00;;;22.50;57.30;;;;;;5013453;28;20081;-58
2021/09/08 06:22:13;;;;;;;14.63;10.10;;;22.50;57.30;;;;;;5014225;28;20062;-56
2021/09/08 06:24:39;;;;;;;12.63;10.18;;;22.50;57.60;;;;;;5013564;28;20382;-56
2021/09/08 06:27:06;;;;;;;15.05;10.18;;;22.50;57.30;;;;;;5013520;28;20049;-56
2021/09/08 06:29:32;;;;;;;15.63;10.05;;;22.50;57.50;;;;;;5013626;28;20050;-56
2021/09/08 06:31:58;;;;;;;19.00;10.70;;;22.50;57.60;;;;;;5013698;28;20394;-56
2021/09/08 06:34:25;;;;;;;13.82;9.73;;;22.60;57.20;;;;;;5012061;28;20044;-62
2021/09/08 06:36:53;;;;;;;14.52;10.60;;;22.60;57.10;;;;;;5013565;28;20501;-57
2021/09/08 06:39:21;;;;;;;17.33;11.25;;;22.60;56.90;;;;;;5013480;28;20474;-64
2021/09/08 06:41:48;;;;;;;13.32;10.60;;;22.60;57.30;;;;;;5013190;28;20037;-61
2021/09/08 06:44:15;;;;;;;16.80;10.63;;;22.60;57.90;;;;;;5013510;28;20040;-63
2021/09/08 06:46:42;;;;;;;20.33;10.73;;;22.50;57.60;;;;;;5013428;28;20042;-70
2021/09/08 06:49:08;;;;;;;17.17;11.43;;;22.50;57.70;;;;;;5013061;28;20478;-69
2021/09/08 06:51:35;;;;;;;14.60;11.48;;;22.40;57.30;;;;;;5013157;28;20030;-63
2021/09/08 06:54:01;;;;;;;15.60;11.88;;;22.50;57.30;;;;;;5011724;28;20050;-64
2021/09/08 06:56:28;;;;;;;20.63;15.32;;;22.40;56.70;;;;;;5012801;28;20042;-64
2021/09/08 06:58:54;;;;;;;23.00;16.77;;;22.50;57.80;;;;;;5013326;28;20057;-63
2021/09/08 07:01:20;;;;;;;26.27;17.85;;;22.50;58.60;;;;;;5012960;28;20046;-63
2021/09/08 07:03:47;;;;;;;26.63;19.48;;;22.50;58.20;;;;;;5011825;28;20042;-63
2021/09/08 07:06:13;;;;;;;17.85;13.05;;;22.50;58.00;;;;;;5012746;28;20387;-64
2021/09/08 07:08:40;;;;;;;16.25;11.77;;;22.50;58.20;;;;;;5011032;28;20088;-64
2021/09/08 07:11:06;;;;;;;15.63;12.32;;;22.50;57.80;;;;;;5011973;28;20050;-63
2021/09/08 07:13:33;;;;;;;13.70;10.48;;;22.50;58.50;;;;;;5012918;28;20038;-63
2021/09/08 07:15:59;;;;;;;19.27;11.32;;;22.50;58.40;;;;;;5013006;28;20379;-64
2021/09/08 07:18:26;;;;;;;19.75;9.65;;;22.50;58.70;;;;;;5012199;28;20048;-65
2021/09/08 07:20:52;;;;;;;13.63;10.77;;;22.50;58.50;;;;;;5012953;28;20038;-64
2021/09/08 07:23:19;;;;;;;14.63;11.52;;;22.50;58.10;;;;;;5012861;28;20053;-65
2021/09/08 07:25:45;;;;;;;13.80;10.10;;;22.50;57.50;;;;;;5013103;28;20030;-59
2021/09/08 07:28:12;;;;;;;20.90;10.98;;;22.50;58.10;;;;;;5012142;28;20042;-61
2021/09/08 07:30:38;;;;;;;15.52;10.35;;;22.50;57.80;;;;;;5012467;28;20041;-61
2021/09/08 07:33:05;;;;;;;15.45;10.48;;;22.50;58.00;;;;;;5012448;28;20038;-61
2021/09/08 07:35:31;;;;;;;13.98;10.43;;;22.50;58.20;;;;;;5012532;28;20026;-61
2021/09/08 07:38:00;;;;;;;15.07;10.20;;;22.50;58.50;;;;;;5010338;28;20104;-62
2021/09/08 07:40:27;;;;;;;18.15;11.00;;;22.60;59.00;;;;;;5012131;28;20053;-62
2021/09/08 07:42:54;;;;;;;16.55;11.20;;;22.60;58.70;;;;;;5011521;28;20482;-62
2021/09/08 07:45:21;;;;;;;17.20;11.43;;;22.60;58.40;;;;;;5012224;28;20038;-63
2021/09/08 07:47:47;;;;;;;14.15;10.38;;;22.60;58.60;;;;;;5012334;28;20487;-61
2021/09/08 07:50:15;;;;;;;19.73;10.15;;;22.60;58.10;;;;;;5012296;28;20053;-61
2021/09/08 07:52:42;;;;;;;14.38;11.60;;;22.60;57.80;;;;;;5011907;28;20046;-61
2021/09/08 07:55:09;;;;;;;15.63;10.32;;;22.60;57.20;;;;;;5012398;28;20053;-61
2021/09/08 07:57:35;;;;;;;19.38;11.50;;;22.60;57.80;;;;;;5012990;28;20033;-61
2021/09/08 08:00:02;;;;;;;15.90;11.70;;;22.60;56.90;;;;;;5012709;28;20386;-61
2021/09/08 08:02:44;;;;;;;14.52;10.18;;;22.60;57.20;;;;;;5012282;28;20045;-61
2021/09/08 08:05:12;;;;;;;15.15;10.15;;;22.60;57.70;;;;;;5012091;28;20348;-61
2021/09/08 08:07:38;;;;;;;13.57;10.95;;;22.60;57.90;;;;;;5011934;28;20390;-62
2021/09/08 08:10:07;;;;;;;13.35;10.07;;;22.60;57.80;;;;;;5011144;28;20049;-61
2021/09/08 08:12:33;;;;;;;15.82;10.07;;;22.70;57.80;;;;;;5016168;28;20033;-62
2021/09/08 08:15:00;;;;;;;20.13;9.75;;;22.70;57.50;;;;;;5028636;28;20378;-64
2021/09/08 08:17:27;;;;;;;16.10;10.13;;;22.70;56.50;;;;;;5030395;28;20037;-61
2021/09/08 08:19:53;;;;;;;18.58;10.15;;;22.70;56.60;;;;;;5029628;28;20034;-61
2021/09/08 08:22:20;;;;;;;23.10;10.25;;;22.80;55.90;;;;;;5030757;28;20048;-61
2021/09/08 08:24:46;;;;;;;12.13;9.30;;;22.70;55.50;;;;;;5035940;28;20041;-61
2021/09/08 08:27:13;;;;;;;12.80;9.60;;;22.70;54.70;;;;;;5034974;28;20026;-61
2021/09/08 08:29:39;;;;;;;14.65;9.68;;;22.80;54.60;;;;;;5035398;28;20049;-62
2021/09/08 08:32:06;;;;;;;21.83;9.77;;;22.70;54.20;;;;;;5035167;28;20029;-63
2021/09/08 08:34:33;;;;;;;17.00;9.35;;;22.70;54.70;;;;;;5035257;28;20339;-62
2021/09/08 08:36:59;;;;;;;26.58;10.43;;;22.70;54.80;;;;;;5034032;28;20040;-62
2021/09/08 08:39:26;;;;;;;15.30;9.57;;;22.70;54.90;;;;;;5035656;28;20049;-62
2021/09/08 08:41:52;;;;;;;16.20;11.27;;;22.70;54.50;;;;;;5035127;28;20033;-62
2021/09/08 08:44:24;;;;;;;16.52;10.50;;;22.70;55.00;;;;;;5035247;28;20033;-62
2021/09/08 08:46:54;;;;;;;17.60;10.73;;;22.70;55.10;;;;;;5034908;28;20454;-63
2021/09/08 08:49:21;;;;;;;19.65;10.73;;;22.80;55.20;;;;;;5034734;28;20033;-62
2021/09/08 08:51:48;;;;;;;12.07;8.85;;;22.70;55.40;;;;;;5034118;28;20343;-62
2021/09/08 08:54:15;;;;;;;13.10;9.07;;;22.70;54.00;;;;;;5034133;28;20036;-62
2021/09/08 08:56:41;;;;;;;12.63;8.38;;;22.70;53.30;;;;;;5033469;28;20040;-62
2021/09/08 08:59:08;;;;;;;11.43;7.60;;;22.70;51.70;;;;;;5034450;28;20033;-62
2021/09/08 09:01:36;;;;;;;14.45;8.45;;;22.70;52.40;;;;;;5035086;28;20445;-62
2021/09/08 09:04:08;;;;;;;14.93;9.18;;;22.70;51.80;;;;;;5034150;28;20048;-62
2021/09/08 09:06:42;;;;;;;11.30;8.32;;;22.80;52.10;;;;;;5035246;28;20029;-62
2021/09/08 09:09:13;;;;;;;10.95;8.43;;;22.80;52.00;;;;;;5035164;28;20038;-62
2021/09/08 09:11:42;;;;;;;8.63;7.07;;;22.80;52.60;;;;;;5033274;28;20044;-62
2021/09/08 09:14:10;;;;;;;10.73;7.30;;;22.80;52.30;;;;;;5034853;28;20026;-62
2021/09/08 09:16:40;;;;;;;10.70;8.18;;;22.80;51.30;;;;;;5034885;28;20362;-62
2021/09/08 09:19:08;;;;;;;12.27;8.35;;;22.90;51.30;;;;;;5034365;28;20026;-62
2021/09/08 09:21:35;;;;;;;12.60;7.43;;;22.90;51.10;;;;;;5034809;28;20036;-62
2021/09/08 09:24:05;;;;;;;13.05;8.50;;;22.90;50.90;;;;;;5034524;28;20343;-63
2021/09/08 09:26:35;;;;;;;11.57;8.30;;;22.90;50.90;;;;;;5034395;28;20033;-63
2021/09/08 09:29:04;;;;;;;11.73;7.90;;;23.00;51.40;;;;;;5034543;28;20488;-63
2021/09/08 09:31:31;;;;;;;12.48;7.70;;;23.00;50.90;;;;;;5034466;28;20044;-62
2021/09/08 09:33:59;;;;;;;15.10;8.20;;;23.00;50.90;;;;;;5032400;28;20029;-62
2021/09/08 09:36:30;;;;;;;11.55;8.45;;;23.10;51.20;;;;;;5034711;28;20033;-62
2021/09/08 09:38:57;;;;;;;12.05;7.90;;;23.10;51.40;;;;;;5034705;28;20029;-62
2021/09/08 09:41:26;;;;;;;12.10;9.07;;;23.10;51.20;;;;;;5015953;28;20044;-62
2021/09/08 09:43:53;;;;;;;12.93;8.65;;;23.20;50.70;;;;;;5035183;28;20037;-62
2021/09/08 09:46:20;;;;;;;11.45;8.30;;;23.10;51.50;;;;;;5034572;28;20040;-62
2021/09/08 09:48:49;;;;;;;14.73;7.70;;;23.20;51.50;;;;;;5033323;28;20057;-62
2021/09/08 09:51:16;;;;;;;11.18;7.88;;;23.20;50.70;;;;;;5033798;28;20040;-63
2021/09/08 09:53:42;;;;;;;10.25;6.97;;;23.20;49.20;;;;;;5033924;28;20045;-63
2021/09/08 09:56:09;;;;;;;9.88;6.13;;;23.20;49.00;;;;;;5032446;28;20041;-62
2021/09/08 09:58:36;;;;;;;9.85;7.45;;;23.30;48.50;;;;;;5033943;28;20036;-61
2021/09/08 10:01:05;;;;;;;11.02;6.72;;;23.30;46.00;;;;;;5033623;28;20386;-62
2021/09/08 10:03:31;;;;;;;11.23;6.05;;;23.40;45.90;;;;;;5032240;28;20029;-62
2021/09/08 10:06:00;;;;;;;9.45;6.63;;;23.50;46.00;;;;;;5033469;28;20037;-61
2021/09/08 10:08:31;;;;;;;10.13;6.32;;;23.50;45.30;;;;;;5033920;28;20042;-61
2021/09/08 10:11:06;;;;;;;12.23;6.47;;;23.60;44.70;;;;;;5033775;28;20034;-61
2021/09/08 10:13:48;;;;;;;8.65;7.13;;;23.60;44.90;;;;;;5033894;28;20036;-62
2021/09/08 10:16:16;;;;;;;8.55;6.07;;;23.60;44.50;;;;;;5033843;28;20026;-62
2021/09/08 10:18:46;;;;;;;10.18;6.60;;;23.70;44.40;;;;;;5032567;28;20034;-62
2021/09/08 10:21:15;;;;;;;9.73;6.95;;;23.70;45.70;;;;;;5033720;28;20044;-61
2021/09/08 10:24:06;;;;;;;11.02;7.05;;;23.70;45.20;;;;;;5033861;28;20053;-61
2021/09/08 10:26:34;;;;;;;10.52;6.85;;;23.70;45.80;;;;;;5033498;28;20021;-62
2021/09/08 10:29:07;;;;;;;12.10;7.88;;;23.80;46.20;;;;;;5031883;28;20048;-63
2021/09/08 10:31:40;;;;;;;11.45;7.40;;;23.80;46.50;;;;;;5033128;28;20036;-62
2021/09/08 10:34:08;;;;;;;9.07;6.47;;;23.90;46.10;;;;;;5033015;28;20045;-64
2021/09/08 10:36:36;;;;;;;12.90;8.57;;;23.90;46.10;;;;;;5033037;28;20029;-64
2021/09/08 10:39:07;;;;;;;10.88;7.35;;;23.90;46.00;;;;;;5032550;28;20033;-61
2021/09/08 10:41:46;;;;;;;10.48;7.60;;;24.00;46.90;;;;;;5033741;28;20049;-66
2021/09/08 10:44:18;;;;;;;13.15;7.32;;;24.00;45.80;;;;;;5032017;28;20514;-61
2021/09/08 10:46:57;;;;;;;10.88;8.10;;;24.10;45.70;;;;;;5031923;28;20037;-62
2021/09/08 10:49:39;;;;;;;13.27;8.60;;;24.10;45.10;;;;;;5032422;28;20493;-60
2021/09/08 10:52:11;;;;;;;10.70;7.25;;;24.10;44.70;;;;;;5033021;28;20045;-59
2021/09/08 10:54:56;;;;;;;11.73;6.53;;;24.20;45.00;;;;;;5032565;28;20037;-68
2021/09/08 10:57:41;;;;;;;12.77;8.00;;;24.20;44.10;;;;;;5033231;28;20402;-59
2021/09/08 11:00:14;;;;;;;16.20;9.65;;;24.20;43.70;;;;;;5032886;28;20038;-59
2021/09/08 11:02:44;;;;;;;10.90;7.70;;;24.20;46.90;;;;;;5032442;28;20034;-55
2021/09/08 11:05:12;;;;;;;13.10;8.13;;;24.30;44.20;;;;;;5032722;28;20355;-57
2021/09/08 11:07:39;;;;;;;9.07;7.90;;;24.30;44.70;;;;;;5031865;28;20048;-53
2021/09/08 11:10:07;;;;;;;11.98;8.30;;;24.40;42.90;;;;;;5031488;28;20040;-59
2021/09/08 11:12:51;;;;;;;11.35;7.93;;;24.40;43.20;;;;;;5031443;28;20037;-64
2021/09/08 11:15:29;;;;;;;9.50;6.55;;;24.40;43.20;;;;;;5032742;28;20489;-64
2021/09/08 11:17:55;;;;;;;12.93;7.30;;;24.50;42.60;;;;;;5031099;28;20374;-63
2021/09/08 11:20:23;;;;;;;14.52;8.13;;;24.50;42.50;;;;;;5031993;28;20052;-61
2021/09/08 11:23:02;;;;;;;12.95;9.63;;;24.60;42.70;;;;;;5032573;28;20049;-62
2021/09/08 11:25:32;;;;;;;12.48;7.32;;;24.60;42.90;;;;;;5031729;28;20037;-62
2021/09/08 11:27:58;;;;;;;11.32;7.68;;;24.60;41.70;;;;;;5032536;28;20022;-63
2021/09/08 11:30:30;;;;;;;19.90;14.57;;;24.60;41.00;;;;;;5032060;28;20049;-62
2021/09/08 11:33:00;;;;;;;29.77;22.58;;;24.70;41.90;;;;;;5032135;28;20038;-61
2021/09/08 11:35:46;;;;;;;16.42;13.18;;;24.80;42.30;;;;;;5031881;28;20064;-61
2021/09/08 11:38:25;;;;;;;16.85;13.18;;;24.80;40.00;;;;;;5031715;28;20041;-62
2021/09/08 11:40:56;;;;;;;15.48;10.00;;;24.80;40.40;;;;;;5032016;28;20049;-62
2021/09/08 11:43:36;;;;;;;12.98;10.48;;;24.80;39.40;;;;;;5032533;28;20052;-63
2021/09/08 11:46:10;;;;;;;;;;;24.90;39.50;;;;;;5032013;28;20042;-63
2021/09/08 11:48:37;;;;;;;11.00;8.73;;;24.90;39.80;;;;;;5031853;28;19909;-63
2021/09/08 11:51:05;;;;;;;10.90;8.27;;;25.00;40.00;;;;;;5032331;28;20042;-62
2021/09/08 11:53:32;;;;;;;10.30;8.43;;;25.00;39.90;;;;;;5030101;28;20040;-62
2021/09/08 11:56:14;;;;;;;12.27;9.50;;;25.00;39.60;;;;;;5032488;28;20105;-62
2021/09/08 11:58:42;;;;;;;10.20;7.65;;;24.90;40.30;;;;;;5035632;28;20037;-62
2021/09/08 12:01:13;;;;;;;14.10;8.90;;;25.00;40.30;;;;;;5035504;28;20029;-63
2021/09/08 12:03:49;;;;;;;12.82;8.77;;;25.00;40.60;;;;;;5035633;28;20036;-63
2021/09/08 12:06:20;;;;;;;11.65;8.18;;;25.10;40.80;;;;;;5068394;28;20046;-62
2021/09/08 12:08:57;;;;;;;10.13;6.68;;;25.10;41.40;;;;;;5035464;28;20026;-63
2021/09/08 12:11:37;;;;;;;9.35;7.18;;;25.10;39.60;;;;;;5036336;28;20367;-61
2021/09/08 12:14:31;;;;;;;11.32;6.63;;;25.10;40.60;;;;;;5035157;28;20033;-62
2021/09/08 12:16:59;;;;;;;8.85;6.75;;;25.10;40.00;;;;;;5035596;28;20057;-62
2021/09/08 12:19:36;;;;;;;10.10;6.78;;;25.10;39.90;;;;;;5035519;28;20466;-62
2021/09/08 12:22:07;;;;;;;11.68;6.70;;;25.10;40.80;;;;;;5035510;28;20056;-62
2021/09/08 12:24:39;;;;;;;10.45;6.93;;;25.10;40.30;;;;;;5067734;28;20037;-62
2021/09/08 12:27:24;;;;;;;9.30;6.07;;;25.10;40.00;;;;;;5036297;28;20041;-62
2021/09/08 12:29:56;;;;;;;9.40;7.07;;;25.10;40.50;;;;;;5033217;28;20042;-62
2021/09/08 12:32:23;;;;;;;7.57;6.78;;;25.10;40.80;;;;;;5034776;28;20520;-62
2021/09/08 12:34:51;;;;;;;7.18;5.97;;;25.20;41.20;;;;;;5034807;28;20049;-62
2021/09/08 12:37:21;;;;;;;8.23;6.55;;;25.10;39.70;;;;;;5034584;28;20494;-62
2021/09/08 12:39:50;;;;;;;8.27;6.13;;;25.10;40.60;;;;;;5035458;28;20042;-63
2021/09/08 12:42:25;;;;;;;8.30;6.80;;;25.10;40.00;;;;;;5035372;28;20378;-63